sensor_id;sensor_type;location;lat;lon;timestamp;temperature;humidity
20422;DHT22;10370;53.102;18.034;2022-08-19T00:04:34;22.00;99.90
20422;DHT22;10370;53.102;18.034;2022-08-19T00:09:57;21.90;99.90
20422;DHT22;10370;53.102;18.034;2022-08-19T00:15:20;21.80;99.90
20422;DHT22;10370;53.102;18.034;2022-08-19T00:20:42;21.80;99.90
20422;DHT22;10370;53.102;18.034;2022-08-19T00:26:07;21.60;99.90
20422;DHT22;10370;53.102;18.034;2022-08-19T00:31:28;21.60;99.90
20422;DHT22;10370;53.102;18.034;2022-08-19T00:36:49;21.40;99.90
20422;DHT22;10370;53.102;18.034;2022-08-19T00:42:09;21.50;99.90
20422;DHT22;10370;53.102;18.034;2022-08-19T00:47:30;21.50;99.90
20422;DHT22;10370;53.102;18.034;2022-08-19T00:52:52;21.40;99.90
20422;DHT22;10370;53.102;18.034;2022-08-19T00:58:16;21.30;99.90
20422;DHT22;10370;53.102;18.034;2022-08-19T01:03:38;21.20;99.90
20422;DHT22;10370;53.102;18.034;2022-08-19T01:09:17;21.00;99.90
20422;DHT22;10370;53.102;18.034;2022-08-19T01:14:39;21.00;99.90
20422;DHT22;10370;53.102;18.034;2022-08-19T01:20:02;20.90;99.90
20422;DHT22;10370;53.102;18.034;2022-08-19T01:25:34;21.00;99.90
20422;DHT22;10370;53.102;18.034;2022-08-19T01:30:57;20.90;99.90
20422;DHT22;10370;53.102;18.034;2022-08-19T01:36:42;20.90;99.90
20422;DHT22;10370;53.102;18.034;2022-08-19T01:42:08;20.90;99.90
20422;DHT22;10370;53.102;18.034;2022-08-19T01:47:31;20.90;99.90
20422;DHT22;10370;53.102;18.034;2022-08-19T01:52:52;20.90;99.90
20422;DHT22;10370;53.102;18.034;2022-08-19T01:58:26;20.80;99.90
20422;DHT22;10370;53.102;18.034;2022-08-19T02:03:50;20.80;99.90
20422;DHT22;10370;53.102;18.034;2022-08-19T02:09:14;20.80;99.90
20422;DHT22;10370;53.102;18.034;2022-08-19T02:14:36;20.80;99.90
20422;DHT22;10370;53.102;18.034;2022-08-19T02:19:57;20.70;99.90
20422;DHT22;10370;53.102;18.034;2022-08-19T02:25:18;20.80;99.90
20422;DHT22;10370;53.102;18.034;2022-08-19T02:30:41;20.80;99.90
20422;DHT22;10370;53.102;18.034;2022-08-19T02:36:07;20.80;99.90
20422;DHT22;10370;53.102;18.034;2022-08-19T02:41:30;20.80;99.90
20422;DHT22;10370;53.102;18.034;2022-08-19T02:46:51;20.80;99.90
20422;DHT22;10370;53.102;18.034;2022-08-19T02:52:13;20.70;99.90
20422;DHT22;10370;53.102;18.034;2022-08-19T02:57:34;20.70;99.90
20422;DHT22;10370;53.102;18.034;2022-08-19T03:02:56;20.70;99.90
20422;DHT22;10370;53.102;18.034;2022-08-19T03:08:17;20.60;99.90
20422;DHT22;10370;53.102;18.034;2022-08-19T03:13:38;20.50;99.90
20422;DHT22;10370;53.102;18.034;2022-08-19T03:19:00;20.50;99.90
20422;DHT22;10370;53.102;18.034;2022-08-19T03:24:21;20.40;99.90
20422;DHT22;10370;53.102;18.034;2022-08-19T03:29:42;20.40;99.90
20422;DHT22;10370;53.102;18.034;2022-08-19T03:35:04;20.40;99.90
20422;DHT22;10370;53.102;18.034;2022-08-19T03:40:26;20.40;99.90
20422;DHT22;10370;53.102;18.034;2022-08-19T03:45:47;20.50;99.90
20422;DHT22;10370;53.102;18.034;2022-08-19T03:51:17;20.60;99.90
20422;DHT22;10370;53.102;18.034;2022-08-19T03:56:41;20.70;99.90
20422;DHT22;10370;53.102;18.034;2022-08-19T04:02:07;20.80;99.90
20422;DHT22;10370;53.102;18.034;2022-08-19T04:07:29;20.80;99.90
20422;DHT22;10370;53.102;18.034;2022-08-19T04:12:50;20.80;99.90
20422;DHT22;10370;53.102;18.034;2022-08-19T04:18:12;20.90;99.90
20422;DHT22;10370;53.102;18.034;2022-08-19T04:23:35;21.00;99.90
20422;DHT22;10370;53.102;18.034;2022-08-19T04:28:59;21.10;99.90
20422;DHT22;10370;53.102;18.034;2022-08-19T04:34:23;21.10;99.90
20422;DHT22;10370;53.102;18.034;2022-08-19T04:39:44;21.30;99.90
20422;DHT22;10370;53.102;18.034;2022-08-19T04:45:24;21.50;99.90
20422;DHT22;10370;53.102;18.034;2022-08-19T04:50:45;21.80;99.90
20422;DHT22;10370;53.102;18.034;2022-08-19T04:56:12;22.00;99.90
20422;DHT22;10370;53.102;18.034;2022-08-19T05:01:33;21.90;99.90
20422;DHT22;10370;53.102;18.034;2022-08-19T05:06:56;22.20;99.90
20422;DHT22;10370;53.102;18.034;2022-08-19T05:12:19;23.20;99.90
20422;DHT22;10370;53.102;18.034;2022-08-19T05:17:40;23.90;99.90
20422;DHT22;10370;53.102;18.034;2022-08-19T05:23:43;24.00;99.90
20422;DHT22;10370;53.102;18.034;2022-08-19T05:29:06;23.70;99.90
20422;DHT22;10370;53.102;18.034;2022-08-19T05:34:31;24.40;99.90
20422;DHT22;10370;53.102;18.034;2022-08-19T05:39:53;25.10;99.90
20422;DHT22;10370;53.102;18.034;2022-08-19T05:45:15;26.10;99.90
20422;DHT22;10370;53.102;18.034;2022-08-19T05:50:36;26.80;99.90
20422;DHT22;10370;53.102;18.034;2022-08-19T05:56:09;26.90;99.90
20422;DHT22;10370;53.102;18.034;2022-08-19T06:07:57;26.30;99.90
20422;DHT22;10370;53.102;18.034;2022-08-19T06:13:22;25.30;99.90
20422;DHT22;10370;53.102;18.034;2022-08-19T06:18:43;24.70;99.90
20422;DHT22;10370;53.102;18.034;2022-08-19T06:24:06;24.60;99.90
20422;DHT22;10370;53.102;18.034;2022-08-19T06:29:28;24.50;99.90
20422;DHT22;10370;53.102;18.034;2022-08-19T06:34:50;24.30;99.90
20422;DHT22;10370;53.102;18.034;2022-08-19T06:40:11;24.40;99.90
20422;DHT22;10370;53.102;18.034;2022-08-19T06:45:33;24.80;99.90
20422;DHT22;10370;53.102;18.034;2022-08-19T06:50:58;25.10;99.90
20422;DHT22;10370;53.102;18.034;2022-08-19T06:56:22;25.40;99.90
20422;DHT22;10370;53.102;18.034;2022-08-19T07:01:50;25.60;99.90
20422;DHT22;10370;53.102;18.034;2022-08-19T07:07:13;25.70;99.90
20422;DHT22;10370;53.102;18.034;2022-08-19T07:12:39;25.70;99.90
20422;DHT22;10370;53.102;18.034;2022-08-19T07:18:01;25.80;99.90
20422;DHT22;10370;53.102;18.034;2022-08-19T07:23:22;26.00;99.90
20422;DHT22;10370;53.102;18.034;2022-08-19T07:28:43;26.20;99.90
20422;DHT22;10370;53.102;18.034;2022-08-19T07:34:08;26.40;99.90
20422;DHT22;10370;53.102;18.034;2022-08-19T07:39:31;26.60;99.90
20422;DHT22;10370;53.102;18.034;2022-08-19T07:44:52;26.90;99.90
20422;DHT22;10370;53.102;18.034;2022-08-19T07:50:13;27.00;99.90
20422;DHT22;10370;53.102;18.034;2022-08-19T07:55:34;27.10;99.90
20422;DHT22;10370;53.102;18.034;2022-08-19T08:01:05;27.20;99.90
20422;DHT22;10370;53.102;18.034;2022-08-19T08:06:26;27.30;99.90
20422;DHT22;10370;53.102;18.034;2022-08-19T08:12:11;27.40;99.90
20422;DHT22;10370;53.102;18.034;2022-08-19T08:17:53;27.60;99.90
20422;DHT22;10370;53.102;18.034;2022-08-19T08:23:14;27.70;99.90
20422;DHT22;10370;53.102;18.034;2022-08-19T08:28:45;27.80;99.90
20422;DHT22;10370;53.102;18.034;2022-08-19T08:34:10;27.90;99.90
20422;DHT22;10370;53.102;18.034;2022-08-19T08:39:31;28.10;99.90
20422;DHT22;10370;53.102;18.034;2022-08-19T08:50:28;28.30;99.90
20422;DHT22;10370;53.102;18.034;2022-08-19T08:55:50;28.40;99.90
20422;DHT22;10370;53.102;18.034;2022-08-19T09:01:11;28.60;99.90
20422;DHT22;10370;53.102;18.034;2022-08-19T09:17:39;29.30;99.90
20422;DHT22;10370;53.102;18.034;2022-08-19T09:23:00;29.20;99.90
20422;DHT22;10370;53.102;18.034;2022-08-19T09:28:21;29.10;99.90
20422;DHT22;10370;53.102;18.034;2022-08-19T09:33:47;29.10;99.90
20422;DHT22;10370;53.102;18.034;2022-08-19T09:39:08;29.50;99.90
20422;DHT22;10370;53.102;18.034;2022-08-19T09:44:34;29.70;99.90
20422;DHT22;10370;53.102;18.034;2022-08-19T09:49:55;29.70;99.90
20422;DHT22;10370;53.102;18.034;2022-08-19T09:55:16;29.80;99.90
20422;DHT22;10370;53.102;18.034;2022-08-19T10:00:38;30.00;99.90
20422;DHT22;10370;53.102;18.034;2022-08-19T10:06:02;30.20;99.90
20422;DHT22;10370;53.102;18.034;2022-08-19T10:11:23;30.30;99.90
20422;DHT22;10370;53.102;18.034;2022-08-19T10:16:48;30.40;99.90
20422;DHT22;10370;53.102;18.034;2022-08-19T10:22:10;30.60;99.90
20422;DHT22;10370;53.102;18.034;2022-08-19T10:27:34;30.70;99.90
20422;DHT22;10370;53.102;18.034;2022-08-19T10:32:55;30.70;99.90
20422;DHT22;10370;53.102;18.034;2022-08-19T10:38:16;30.90;99.90
20422;DHT22;10370;53.102;18.034;2022-08-19T10:43:38;31.10;99.90
20422;DHT22;10370;53.102;18.034;2022-08-19T10:49:00;31.20;99.90
20422;DHT22;10370;53.102;18.034;2022-08-19T10:54:22;31.00;99.90
20422;DHT22;10370;53.102;18.034;2022-08-19T10:59:50;31.10;99.90
20422;DHT22;10370;53.102;18.034;2022-08-19T11:05:12;31.20;99.90
20422;DHT22;10370;53.102;18.034;2022-08-19T11:10:35;31.50;99.90
20422;DHT22;10370;53.102;18.034;2022-08-19T11:16:03;31.40;99.90
20422;DHT22;10370;53.102;18.034;2022-08-19T11:21:32;31.50;99.90
20422;DHT22;10370;53.102;18.034;2022-08-19T11:27:01;31.50;99.90
20422;DHT22;10370;53.102;18.034;2022-08-19T11:32:23;31.60;99.90
20422;DHT22;10370;53.102;18.034;2022-08-19T11:37:44;31.70;99.90
20422;DHT22;10370;53.102;18.034;2022-08-19T11:43:05;31.70;99.90
20422;DHT22;10370;53.102;18.034;2022-08-19T11:48:26;31.70;99.70
20422;DHT22;10370;53.102;18.034;2022-08-19T11:53:48;31.70;99.90
20422;DHT22;10370;53.102;18.034;2022-08-19T11:59:10;31.70;99.90
20422;DHT22;10370;53.102;18.034;2022-08-19T12:04:34;31.60;99.70
20422;DHT22;10370;53.102;18.034;2022-08-19T12:09:55;31.70;99.70
20422;DHT22;10370;53.102;18.034;2022-08-19T12:15:17;31.70;99.80
20422;DHT22;10370;53.102;18.034;2022-08-19T12:20:42;31.70;99.90
20422;DHT22;10370;53.102;18.034;2022-08-19T12:26:04;31.90;99.70
20422;DHT22;10370;53.102;18.034;2022-08-19T12:31:26;32.00;99.20
20422;DHT22;10370;53.102;18.034;2022-08-19T12:36:48;32.20;98.20
20422;DHT22;10370;53.102;18.034;2022-08-19T12:42:11;32.20;98.00
20422;DHT22;10370;53.102;18.034;2022-08-19T12:47:32;32.20;98.10
20422;DHT22;10370;53.102;18.034;2022-08-19T12:52:53;32.10;96.50
20422;DHT22;10370;53.102;18.034;2022-08-19T12:58:15;32.30;96.00
20422;DHT22;10370;53.102;18.034;2022-08-19T13:03:36;32.40;96.00
20422;DHT22;10370;53.102;18.034;2022-08-19T13:08:59;32.40;96.00
20422;DHT22;10370;53.102;18.034;2022-08-19T13:14:20;32.50;95.30
20422;DHT22;10370;53.102;18.034;2022-08-19T13:19:41;32.30;94.70
20422;DHT22;10370;53.102;18.034;2022-08-19T13:25:04;32.40;94.50
20422;DHT22;10370;53.102;18.034;2022-08-19T13:30:27;32.10;95.10
20422;DHT22;10370;53.102;18.034;2022-08-19T13:36:06;32.30;94.90
20422;DHT22;10370;53.102;18.034;2022-08-19T13:41:28;32.60;93.50
20422;DHT22;10370;53.102;18.034;2022-08-19T13:46:49;32.80;92.70
20422;DHT22;10370;53.102;18.034;2022-08-19T13:52:14;33.00;90.80
20422;DHT22;10370;53.102;18.034;2022-08-19T13:57:35;32.80;91.00
20422;DHT22;10370;53.102;18.034;2022-08-19T14:02:59;33.00;90.50
20422;DHT22;10370;53.102;18.034;2022-08-19T14:08:20;32.90;90.70
20422;DHT22;10370;53.102;18.034;2022-08-19T14:13:41;32.80;90.60
20422;DHT22;10370;53.102;18.034;2022-08-19T14:19:02;32.70;89.80
20422;DHT22;10370;53.102;18.034;2022-08-19T14:24:23;32.70;89.40
20422;DHT22;10370;53.102;18.034;2022-08-19T14:29:45;32.80;90.10
20422;DHT22;10370;53.102;18.034;2022-08-19T14:35:06;33.00;91.50
20422;DHT22;10370;53.102;18.034;2022-08-19T14:40:31;33.00;91.30
20422;DHT22;10370;53.102;18.034;2022-08-19T14:45:52;32.70;92.20
20422;DHT22;10370;53.102;18.034;2022-08-19T14:51:13;32.50;91.80
20422;DHT22;10370;53.102;18.034;2022-08-19T14:56:34;32.60;92.20
20422;DHT22;10370;53.102;18.034;2022-08-19T15:01:55;32.60;91.00
20422;DHT22;10370;53.102;18.034;2022-08-19T15:07:16;32.70;90.10
20422;DHT22;10370;53.102;18.034;2022-08-19T15:12:38;32.70;89.50
20422;DHT22;10370;53.102;18.034;2022-08-19T15:18:05;32.80;90.10
20422;DHT22;10370;53.102;18.034;2022-08-19T15:23:26;32.70;90.90
20422;DHT22;10370;53.102;18.034;2022-08-19T15:28:47;32.60;90.00
20422;DHT22;10370;53.102;18.034;2022-08-19T15:34:09;32.30;90.20
20422;DHT22;10370;53.102;18.034;2022-08-19T15:39:29;32.10;89.10
20422;DHT22;10370;53.102;18.034;2022-08-19T15:44:51;32.10;89.40
20422;DHT22;10370;53.102;18.034;2022-08-19T15:50:15;32.00;90.70
20422;DHT22;10370;53.102;18.034;2022-08-19T15:55:43;31.90;90.40
20422;DHT22;10370;53.102;18.034;2022-08-19T16:01:06;31.80;91.00
20422;DHT22;10370;53.102;18.034;2022-08-19T16:06:49;31.70;91.90
20422;DHT22;10370;53.102;18.034;2022-08-19T16:12:11;31.50;91.40
20422;DHT22;10370;53.102;18.034;2022-08-19T16:17:31;31.40;91.10
20422;DHT22;10370;53.102;18.034;2022-08-19T16:22:52;31.20;90.90
20422;DHT22;10370;53.102;18.034;2022-08-19T16:28:13;31.00;91.10
20422;DHT22;10370;53.102;18.034;2022-08-19T16:33:34;30.90;90.80
20422;DHT22;10370;53.102;18.034;2022-08-19T16:38:56;30.90;91.00
20422;DHT22;10370;53.102;18.034;2022-08-19T16:44:18;30.90;91.30
20422;DHT22;10370;53.102;18.034;2022-08-19T16:49:40;30.70;91.70
20422;DHT22;10370;53.102;18.034;2022-08-19T16:55:14;30.60;92.90
20422;DHT22;10370;53.102;18.034;2022-08-19T17:00:36;30.40;92.90
20422;DHT22;10370;53.102;18.034;2022-08-19T17:05:58;30.20;93.70
20422;DHT22;10370;53.102;18.034;2022-08-19T17:11:24;30.00;94.80
20422;DHT22;10370;53.102;18.034;2022-08-19T17:16:46;29.90;95.30
20422;DHT22;10370;53.102;18.034;2022-08-19T17:22:07;29.70;96.90
20422;DHT22;10370;53.102;18.034;2022-08-19T17:27:29;29.60;96.20
20422;DHT22;10370;53.102;18.034;2022-08-19T17:32:51;29.50;96.60
20422;DHT22;10370;53.102;18.034;2022-08-19T17:38:16;29.50;97.20
20422;DHT22;10370;53.102;18.034;2022-08-19T17:43:37;29.40;97.90
20422;DHT22;10370;53.102;18.034;2022-08-19T17:49:02;29.30;98.60
20422;DHT22;10370;53.102;18.034;2022-08-19T17:54:23;29.20;99.30
20422;DHT22;10370;53.102;18.034;2022-08-19T17:59:45;29.00;99.90
20422;DHT22;10370;53.102;18.034;2022-08-19T18:05:06;28.90;99.90
20422;DHT22;10370;53.102;18.034;2022-08-19T18:10:29;28.80;99.90
20422;DHT22;10370;53.102;18.034;2022-08-19T18:15:54;28.60;99.90
20422;DHT22;10370;53.102;18.034;2022-08-19T18:21:17;28.30;99.90
20422;DHT22;10370;53.102;18.034;2022-08-19T18:26:38;28.20;99.90
20422;DHT22;10370;53.102;18.034;2022-08-19T18:31:59;28.00;99.90
20422;DHT22;10370;53.102;18.034;2022-08-19T18:37:20;27.90;99.90
20422;DHT22;10370;53.102;18.034;2022-08-19T18:42:45;27.90;99.90
20422;DHT22;10370;53.102;18.034;2022-08-19T18:48:26;28.00;99.90
20422;DHT22;10370;53.102;18.034;2022-08-19T18:54:23;28.00;99.90
20422;DHT22;10370;53.102;18.034;2022-08-19T18:59:45;27.90;99.90
20422;DHT22;10370;53.102;18.034;2022-08-19T19:05:07;27.80;99.90
20422;DHT22;10370;53.102;18.034;2022-08-19T19:10:28;27.80;99.90
20422;DHT22;10370;53.102;18.034;2022-08-19T19:15:49;27.80;99.90
20422;DHT22;10370;53.102;18.034;2022-08-19T19:21:11;27.70;99.90
20422;DHT22;10370;53.102;18.034;2022-08-19T19:26:32;27.60;99.90
20422;DHT22;10370;53.102;18.034;2022-08-19T19:31:53;27.50;99.90
20422;DHT22;10370;53.102;18.034;2022-08-19T19:37:15;27.30;99.90
20422;DHT22;10370;53.102;18.034;2022-08-19T19:42:36;27.10;99.90
20422;DHT22;10370;53.102;18.034;2022-08-19T19:47:57;27.10;99.90
20422;DHT22;10370;53.102;18.034;2022-08-19T19:53:20;26.90;99.90
20422;DHT22;10370;53.102;18.034;2022-08-19T19:58:41;26.90;99.90
20422;DHT22;10370;53.102;18.034;2022-08-19T20:04:03;27.00;99.90
20422;DHT22;10370;53.102;18.034;2022-08-19T20:09:24;26.90;99.90
20422;DHT22;10370;53.102;18.034;2022-08-19T20:14:58;26.80;99.90
20422;DHT22;10370;53.102;18.034;2022-08-19T20:20:19;26.80;99.90
20422;DHT22;10370;53.102;18.034;2022-08-19T20:25:41;26.80;99.90
20422;DHT22;10370;53.102;18.034;2022-08-19T20:31:03;26.70;99.90
20422;DHT22;10370;53.102;18.034;2022-08-19T20:36:24;26.40;99.90
20422;DHT22;10370;53.102;18.034;2022-08-19T20:41:45;26.20;99.90
20422;DHT22;10370;53.102;18.034;2022-08-19T20:47:06;25.80;99.90
20422;DHT22;10370;53.102;18.034;2022-08-19T20:52:28;25.60;99.90
20422;DHT22;10370;53.102;18.034;2022-08-19T20:57:49;25.40;99.90
20422;DHT22;10370;53.102;18.034;2022-08-19T21:03:12;25.40;99.90
20422;DHT22;10370;53.102;18.034;2022-08-19T21:08:36;25.30;99.90
20422;DHT22;10370;53.102;18.034;2022-08-19T21:13:57;25.10;99.90
20422;DHT22;10370;53.102;18.034;2022-08-19T21:19:18;25.10;99.90
20422;DHT22;10370;53.102;18.034;2022-08-19T21:24:43;25.00;99.90
20422;DHT22;10370;53.102;18.034;2022-08-19T21:30:05;24.90;99.90
20422;DHT22;10370;53.102;18.034;2022-08-19T21:35:27;24.80;99.90
20422;DHT22;10370;53.102;18.034;2022-08-19T21:40:48;24.80;99.90
20422;DHT22;10370;53.102;18.034;2022-08-19T21:46:10;24.80;99.90
20422;DHT22;10370;53.102;18.034;2022-08-19T21:51:31;24.70;99.90
20422;DHT22;10370;53.102;18.034;2022-08-19T21:56:52;24.80;99.90
20422;DHT22;10370;53.102;18.034;2022-08-19T22:02:13;24.70;99.90
20422;DHT22;10370;53.102;18.034;2022-08-19T22:07:41;24.70;99.90
20422;DHT22;10370;53.102;18.034;2022-08-19T22:13:04;24.60;99.90
20422;DHT22;10370;53.102;18.034;2022-08-19T22:18:25;24.60;99.90
20422;DHT22;10370;53.102;18.034;2022-08-19T22:23:47;24.50;99.90
20422;DHT22;10370;53.102;18.034;2022-08-19T22:29:08;24.40;99.90
20422;DHT22;10370;53.102;18.034;2022-08-19T22:34:29;24.30;99.90
20422;DHT22;10370;53.102;18.034;2022-08-19T22:39:51;24.20;99.90
20422;DHT22;10370;53.102;18.034;2022-08-19T22:45:16;24.20;99.90
20422;DHT22;10370;53.102;18.034;2022-08-19T22:50:39;24.10;99.90
20422;DHT22;10370;53.102;18.034;2022-08-19T22:56:02;24.00;99.90
20422;DHT22;10370;53.102;18.034;2022-08-19T23:01:23;23.90;99.90
20422;DHT22;10370;53.102;18.034;2022-08-19T23:06:47;23.80;99.90
20422;DHT22;10370;53.102;18.034;2022-08-19T23:12:08;23.70;99.90
20422;DHT22;10370;53.102;18.034;2022-08-19T23:17:41;23.50;99.90
20422;DHT22;10370;53.102;18.034;2022-08-19T23:23:12;23.40;99.90
20422;DHT22;10370;53.102;18.034;2022-08-19T23:28:33;23.20;99.90
20422;DHT22;10370;53.102;18.034;2022-08-19T23:34:13;23.00;99.90
20422;DHT22;10370;53.102;18.034;2022-08-19T23:39:34;23.00;99.90
20422;DHT22;10370;53.102;18.034;2022-08-19T23:45:00;22.90;99.90
20422;DHT22;10370;53.102;18.034;2022-08-19T23:50:23;22.80;99.90
20422;DHT22;10370;53.102;18.034;2022-08-19T23:55:46;22.80;99.90
